sensor_id;sensor_type;location;lat;lon;timestamp;temperature;humidity
46309;DHT22;32037;50.820;6.494;2022-09-09T00:02:02;23.70;48.10
46309;DHT22;32037;50.820;6.494;2022-09-09T00:04:34;23.70;48.10
46309;DHT22;32037;50.820;6.494;2022-09-09T00:07:06;23.70;48.00
46309;DHT22;32037;50.820;6.494;2022-09-09T00:09:43;23.70;48.00
46309;DHT22;32037;50.820;6.494;2022-09-09T00:12:15;23.60;47.90
46309;DHT22;32037;50.820;6.494;2022-09-09T00:14:50;23.60;47.90
46309;DHT22;32037;50.820;6.494;2022-09-09T00:17:30;23.60;47.90
46309;DHT22;32037;50.820;6.494;2022-09-09T00:20:04;23.60;48.00
46309;DHT22;32037;50.820;6.494;2022-09-09T00:22:33;23.60;47.90
46309;DHT22;32037;50.820;6.494;2022-09-09T00:25:10;23.60;47.90
46309;DHT22;32037;50.820;6.494;2022-09-09T00:27:43;23.60;47.90
46309;DHT22;32037;50.820;6.494;2022-09-09T00:30:15;23.60;47.80
46309;DHT22;32037;50.820;6.494;2022-09-09T00:32:49;23.60;47.80
46309;DHT22;32037;50.820;6.494;2022-09-09T00:35:24;23.60;47.80
46309;DHT22;32037;50.820;6.494;2022-09-09T00:37:54;23.60;47.80
46309;DHT22;32037;50.820;6.494;2022-09-09T00:40:28;23.60;47.80
46309;DHT22;32037;50.820;6.494;2022-09-09T00:43:10;23.60;47.80
46309;DHT22;32037;50.820;6.494;2022-09-09T00:45:58;23.60;48.00
46309;DHT22;32037;50.820;6.494;2022-09-09T00:48:34;23.60;47.80
46309;DHT22;32037;50.820;6.494;2022-09-09T00:51:09;23.50;47.70
46309;DHT22;32037;50.820;6.494;2022-09-09T00:54:01;23.60;47.90
46309;DHT22;32037;50.820;6.494;2022-09-09T00:56:36;23.60;47.90
46309;DHT22;32037;50.820;6.494;2022-09-09T00:59:20;23.60;47.90
46309;DHT22;32037;50.820;6.494;2022-09-09T01:01:55;23.60;47.90
46309;DHT22;32037;50.820;6.494;2022-09-09T01:04:29;23.60;49.10
46309;DHT22;32037;50.820;6.494;2022-09-09T01:07:11;23.60;47.90
46309;DHT22;32037;50.820;6.494;2022-09-09T01:09:52;23.50;47.80
46309;DHT22;32037;50.820;6.494;2022-09-09T01:12:30;23.50;47.80
46309;DHT22;32037;50.820;6.494;2022-09-09T01:15:08;23.50;47.80
46309;DHT22;32037;50.820;6.494;2022-09-09T01:17:52;23.60;47.90
46309;DHT22;32037;50.820;6.494;2022-09-09T01:20:25;23.50;47.80
46309;DHT22;32037;50.820;6.494;2022-09-09T01:23:18;23.50;47.80
46309;DHT22;32037;50.820;6.494;2022-09-09T01:26:19;23.50;47.80
46309;DHT22;32037;50.820;6.494;2022-09-09T01:28:50;23.50;47.80
46309;DHT22;32037;50.820;6.494;2022-09-09T01:31:31;23.50;47.80
46309;DHT22;32037;50.820;6.494;2022-09-09T01:34:00;23.50;47.80
46309;DHT22;32037;50.820;6.494;2022-09-09T01:36:37;23.50;47.90
46309;DHT22;32037;50.820;6.494;2022-09-09T01:39:07;23.50;47.80
46309;DHT22;32037;50.820;6.494;2022-09-09T01:41:37;23.50;47.90
46309;DHT22;32037;50.820;6.494;2022-09-09T01:44:10;23.50;47.90
46309;DHT22;32037;50.820;6.494;2022-09-09T01:46:42;23.50;47.80
46309;DHT22;32037;50.820;6.494;2022-09-09T01:49:17;23.50;47.90
46309;DHT22;32037;50.820;6.494;2022-09-09T01:51:49;23.50;47.90
46309;DHT22;32037;50.820;6.494;2022-09-09T01:54:23;23.50;48.00
46309;DHT22;32037;50.820;6.494;2022-09-09T01:57:02;23.50;47.80
46309;DHT22;32037;50.820;6.494;2022-09-09T01:59:48;23.50;47.90
46309;DHT22;32037;50.820;6.494;2022-09-09T02:02:24;23.50;47.90
46309;DHT22;32037;50.820;6.494;2022-09-09T02:05:30;23.50;47.90
46309;DHT22;32037;50.820;6.494;2022-09-09T02:08:06;23.50;48.00
46309;DHT22;32037;50.820;6.494;2022-09-09T02:10:47;23.40;47.80
46309;DHT22;32037;50.820;6.494;2022-09-09T02:13:34;23.40;47.90
46309;DHT22;32037;50.820;6.494;2022-09-09T02:16:07;23.50;47.90
46309;DHT22;32037;50.820;6.494;2022-09-09T02:18:42;23.40;47.80
46309;DHT22;32037;50.820;6.494;2022-09-09T02:21:13;23.40;47.80
46309;DHT22;32037;50.820;6.494;2022-09-09T02:23:43;23.40;47.80
46309;DHT22;32037;50.820;6.494;2022-09-09T02:26:14;23.40;47.90
46309;DHT22;32037;50.820;6.494;2022-09-09T02:28:53;23.40;47.90
46309;DHT22;32037;50.820;6.494;2022-09-09T02:31:25;23.40;47.90
46309;DHT22;32037;50.820;6.494;2022-09-09T02:34:00;23.40;47.90
46309;DHT22;32037;50.820;6.494;2022-09-09T02:36:32;23.40;47.90
46309;DHT22;32037;50.820;6.494;2022-09-09T02:39:03;23.40;47.80
46309;DHT22;32037;50.820;6.494;2022-09-09T02:41:38;23.40;47.80
46309;DHT22;32037;50.820;6.494;2022-09-09T02:44:11;23.40;47.90
46309;DHT22;32037;50.820;6.494;2022-09-09T02:47:02;23.40;47.90
46309;DHT22;32037;50.820;6.494;2022-09-09T02:49:40;23.40;47.80
46309;DHT22;32037;50.820;6.494;2022-09-09T02:52:14;23.40;48.00
46309;DHT22;32037;50.820;6.494;2022-09-09T02:54:43;23.40;47.90
46309;DHT22;32037;50.820;6.494;2022-09-09T02:57:17;23.40;47.90
46309;DHT22;32037;50.820;6.494;2022-09-09T02:59:50;23.40;48.00
46309;DHT22;32037;50.820;6.494;2022-09-09T03:02:20;23.30;47.90
46309;DHT22;32037;50.820;6.494;2022-09-09T03:04:54;23.30;47.90
46309;DHT22;32037;50.820;6.494;2022-09-09T03:07:22;23.30;48.00
46309;DHT22;32037;50.820;6.494;2022-09-09T03:09:52;23.30;48.00
46309;DHT22;32037;50.820;6.494;2022-09-09T03:12:24;23.30;48.10
46309;DHT22;32037;50.820;6.494;2022-09-09T03:14:54;23.30;48.10
46309;DHT22;32037;50.820;6.494;2022-09-09T03:17:24;23.30;48.10
46309;DHT22;32037;50.820;6.494;2022-09-09T03:19:55;23.30;48.10
46309;DHT22;32037;50.820;6.494;2022-09-09T03:22:25;23.30;48.10
46309;DHT22;32037;50.820;6.494;2022-09-09T03:24:55;23.30;48.10
46309;DHT22;32037;50.820;6.494;2022-09-09T03:27:24;23.30;48.10
46309;DHT22;32037;50.820;6.494;2022-09-09T03:29:54;23.30;48.10
46309;DHT22;32037;50.820;6.494;2022-09-09T03:32:24;23.30;48.10
46309;DHT22;32037;50.820;6.494;2022-09-09T03:34:56;23.30;48.10
46309;DHT22;32037;50.820;6.494;2022-09-09T03:37:25;23.30;48.10
46309;DHT22;32037;50.820;6.494;2022-09-09T03:39:53;23.30;48.10
46309;DHT22;32037;50.820;6.494;2022-09-09T03:42:23;23.30;48.10
46309;DHT22;32037;50.820;6.494;2022-09-09T03:44:55;23.20;48.00
46309;DHT22;32037;50.820;6.494;2022-09-09T03:47:26;23.20;48.00
46309;DHT22;32037;50.820;6.494;2022-09-09T03:50:01;23.30;48.10
46309;DHT22;32037;50.820;6.494;2022-09-09T03:52:34;23.30;48.20
46309;DHT22;32037;50.820;6.494;2022-09-09T03:55:06;23.20;48.00
46309;DHT22;32037;50.820;6.494;2022-09-09T03:57:35;23.20;48.10
46309;DHT22;32037;50.820;6.494;2022-09-09T04:00:10;23.20;48.10
46309;DHT22;32037;50.820;6.494;2022-09-09T04:02:50;23.20;48.10
46309;DHT22;32037;50.820;6.494;2022-09-09T04:05:23;23.20;48.00
46309;DHT22;32037;50.820;6.494;2022-09-09T04:07:52;23.20;48.10
46309;DHT22;32037;50.820;6.494;2022-09-09T04:10:21;23.20;48.10
46309;DHT22;32037;50.820;6.494;2022-09-09T04:12:52;23.20;48.20
46309;DHT22;32037;50.820;6.494;2022-09-09T04:15:22;23.20;48.10
46309;DHT22;32037;50.820;6.494;2022-09-09T04:17:51;23.20;48.20
46309;DHT22;32037;50.820;6.494;2022-09-09T04:20:19;23.20;48.10
46309;DHT22;32037;50.820;6.494;2022-09-09T04:22:49;23.20;48.10
46309;DHT22;32037;50.820;6.494;2022-09-09T04:25:17;23.20;48.10
46309;DHT22;32037;50.820;6.494;2022-09-09T04:27:46;23.20;48.10
46309;DHT22;32037;50.820;6.494;2022-09-09T04:30:15;23.20;48.10
46309;DHT22;32037;50.820;6.494;2022-09-09T04:32:45;23.20;48.20
46309;DHT22;32037;50.820;6.494;2022-09-09T04:35:14;23.20;49.40
46309;DHT22;32037;50.820;6.494;2022-09-09T04:37:42;23.20;48.20
46309;DHT22;32037;50.820;6.494;2022-09-09T04:40:12;23.10;48.10
46309;DHT22;32037;50.820;6.494;2022-09-09T04:42:41;23.10;48.10
46309;DHT22;32037;50.820;6.494;2022-09-09T04:45:13;23.20;48.20
46309;DHT22;32037;50.820;6.494;2022-09-09T04:47:42;23.10;48.10
46309;DHT22;32037;50.820;6.494;2022-09-09T04:50:12;23.10;48.10
46309;DHT22;32037;50.820;6.494;2022-09-09T04:52:40;23.10;48.10
46309;DHT22;32037;50.820;6.494;2022-09-09T04:55:09;23.10;48.10
46309;DHT22;32037;50.820;6.494;2022-09-09T04:57:37;23.10;48.10
46309;DHT22;32037;50.820;6.494;2022-09-09T05:00:07;23.10;48.10
46309;DHT22;32037;50.820;6.494;2022-09-09T05:02:39;23.10;48.20
46309;DHT22;32037;50.820;6.494;2022-09-09T05:05:09;23.10;48.10
46309;DHT22;32037;50.820;6.494;2022-09-09T05:07:41;23.10;48.20
46309;DHT22;32037;50.820;6.494;2022-09-09T05:10:10;23.10;48.20
46309;DHT22;32037;50.820;6.494;2022-09-09T05:12:42;23.10;48.20
46309;DHT22;32037;50.820;6.494;2022-09-09T05:15:11;23.10;49.50
46309;DHT22;32037;50.820;6.494;2022-09-09T05:17:39;23.10;48.20
46309;DHT22;32037;50.820;6.494;2022-09-09T05:20:09;23.10;48.10
46309;DHT22;32037;50.820;6.494;2022-09-09T05:22:44;23.10;48.20
46309;DHT22;32037;50.820;6.494;2022-09-09T05:25:15;23.10;48.20
46309;DHT22;32037;50.820;6.494;2022-09-09T05:27:43;23.10;48.10
46309;DHT22;32037;50.820;6.494;2022-09-09T05:30:12;23.10;48.20
46309;DHT22;32037;50.820;6.494;2022-09-09T05:32:41;23.00;48.00
46309;DHT22;32037;50.820;6.494;2022-09-09T05:35:11;23.00;48.10
46309;DHT22;32037;50.820;6.494;2022-09-09T05:37:40;23.00;48.10
46309;DHT22;32037;50.820;6.494;2022-09-09T05:40:10;23.00;48.10
46309;DHT22;32037;50.820;6.494;2022-09-09T05:42:40;23.00;48.10
46309;DHT22;32037;50.820;6.494;2022-09-09T05:45:09;23.00;49.40
46309;DHT22;32037;50.820;6.494;2022-09-09T05:47:38;22.90;48.10
46309;DHT22;32037;50.820;6.494;2022-09-09T05:50:10;23.00;48.20
46309;DHT22;32037;50.820;6.494;2022-09-09T05:52:40;23.00;48.10
46309;DHT22;32037;50.820;6.494;2022-09-09T05:55:10;22.90;48.10
46309;DHT22;32037;50.820;6.494;2022-09-09T05:57:38;22.90;48.10
46309;DHT22;32037;50.820;6.494;2022-09-09T06:00:08;22.90;48.10
46309;DHT22;32037;50.820;6.494;2022-09-09T06:02:39;22.90;48.10
46309;DHT22;32037;50.820;6.494;2022-09-09T06:05:11;22.90;48.10
46309;DHT22;32037;50.820;6.494;2022-09-09T06:07:40;22.90;48.10
46309;DHT22;32037;50.820;6.494;2022-09-09T06:10:12;22.90;48.10
46309;DHT22;32037;50.820;6.494;2022-09-09T06:12:41;22.90;48.10
46309;DHT22;32037;50.820;6.494;2022-09-09T06:15:09;22.90;48.10
46309;DHT22;32037;50.820;6.494;2022-09-09T06:17:38;22.90;48.10
46309;DHT22;32037;50.820;6.494;2022-09-09T06:20:08;22.90;48.10
46309;DHT22;32037;50.820;6.494;2022-09-09T06:22:39;22.90;48.10
46309;DHT22;32037;50.820;6.494;2022-09-09T06:25:08;22.90;48.10
46309;DHT22;32037;50.820;6.494;2022-09-09T06:27:40;22.90;48.10
46309;DHT22;32037;50.820;6.494;2022-09-09T06:30:10;22.90;48.20
46309;DHT22;32037;50.820;6.494;2022-09-09T06:32:38;22.90;48.20
46309;DHT22;32037;50.820;6.494;2022-09-09T06:35:07;22.80;48.00
46309;DHT22;32037;50.820;6.494;2022-09-09T06:37:36;22.90;48.10
46309;DHT22;32037;50.820;6.494;2022-09-09T06:40:05;22.80;48.10
46309;DHT22;32037;50.820;6.494;2022-09-09T06:42:34;22.80;48.90
46309;DHT22;32037;50.820;6.494;2022-09-09T06:45:22;22.80;48.10
46309;DHT22;32037;50.820;6.494;2022-09-09T06:47:55;22.80;48.00
46309;DHT22;32037;50.820;6.494;2022-09-09T06:50:24;22.90;48.20
46309;DHT22;32037;50.820;6.494;2022-09-09T06:52:52;22.80;48.00
46309;DHT22;32037;50.820;6.494;2022-09-09T06:55:21;22.80;48.00
46309;DHT22;32037;50.820;6.494;2022-09-09T06:57:49;22.80;48.10
46309;DHT22;32037;50.820;6.494;2022-09-09T07:00:23;22.80;48.00
46309;DHT22;32037;50.820;6.494;2022-09-09T07:02:52;22.80;48.00
46309;DHT22;32037;50.820;6.494;2022-09-09T07:05:21;22.80;48.00
46309;DHT22;32037;50.820;6.494;2022-09-09T07:07:51;22.80;47.90
46309;DHT22;32037;50.820;6.494;2022-09-09T07:10:20;22.80;48.10
46309;DHT22;32037;50.820;6.494;2022-09-09T07:12:50;22.80;47.90
46309;DHT22;32037;50.820;6.494;2022-09-09T07:15:22;22.80;47.80
46309;DHT22;32037;50.820;6.494;2022-09-09T07:17:53;22.80;47.80
46309;DHT22;32037;50.820;6.494;2022-09-09T07:20:21;22.80;47.80
46309;DHT22;32037;50.820;6.494;2022-09-09T07:22:50;22.80;47.90
46309;DHT22;32037;50.820;6.494;2022-09-09T07:25:22;22.80;47.90
46309;DHT22;32037;50.820;6.494;2022-09-09T07:27:50;22.80;47.80
46309;DHT22;32037;50.820;6.494;2022-09-09T07:30:19;22.80;47.80
46309;DHT22;32037;50.820;6.494;2022-09-09T07:32:56;22.80;47.80
46309;DHT22;32037;50.820;6.494;2022-09-09T07:35:25;22.80;47.80
46309;DHT22;32037;50.820;6.494;2022-09-09T07:37:54;22.80;47.80
46309;DHT22;32037;50.820;6.494;2022-09-09T07:40:23;22.80;47.80
46309;DHT22;32037;50.820;6.494;2022-09-09T07:42:52;22.80;47.80
46309;DHT22;32037;50.820;6.494;2022-09-09T07:45:21;22.80;47.70
46309;DHT22;32037;50.820;6.494;2022-09-09T07:47:49;22.80;47.80
46309;DHT22;32037;50.820;6.494;2022-09-09T07:50:21;22.80;47.80
46309;DHT22;32037;50.820;6.494;2022-09-09T07:52:50;22.80;47.90
46309;DHT22;32037;50.820;6.494;2022-09-09T07:55:20;22.80;47.80
46309;DHT22;32037;50.820;6.494;2022-09-09T07:57:48;22.80;47.80
46309;DHT22;32037;50.820;6.494;2022-09-09T08:00:17;22.80;47.80
46309;DHT22;32037;50.820;6.494;2022-09-09T08:02:52;22.80;47.60
46309;DHT22;32037;50.820;6.494;2022-09-09T08:05:23;22.80;47.60
46309;DHT22;32037;50.820;6.494;2022-09-09T08:07:52;22.80;47.60
46309;DHT22;32037;50.820;6.494;2022-09-09T08:10:21;22.80;47.70
46309;DHT22;32037;50.820;6.494;2022-09-09T08:12:51;22.80;47.60
46309;DHT22;32037;50.820;6.494;2022-09-09T08:15:41;22.80;47.70
46309;DHT22;32037;50.820;6.494;2022-09-09T08:18:10;22.70;47.50
46309;DHT22;32037;50.820;6.494;2022-09-09T08:20:40;22.70;47.50
46309;DHT22;32037;50.820;6.494;2022-09-09T08:23:09;22.70;50.50
46309;DHT22;32037;50.820;6.494;2022-09-09T08:25:37;22.70;48.10
46309;DHT22;32037;50.820;6.494;2022-09-09T08:28:06;22.70;47.50
46309;DHT22;32037;50.820;6.494;2022-09-09T08:30:34;22.70;47.30
46309;DHT22;32037;50.820;6.494;2022-09-09T08:33:05;22.70;47.40
46309;DHT22;32037;50.820;6.494;2022-09-09T08:35:34;22.70;47.30
46309;DHT22;32037;50.820;6.494;2022-09-09T08:38:04;22.70;47.30
46309;DHT22;32037;50.820;6.494;2022-09-09T08:40:42;22.70;47.30
46309;DHT22;32037;50.820;6.494;2022-09-09T08:43:13;22.70;47.30
46309;DHT22;32037;50.820;6.494;2022-09-09T08:45:52;22.70;47.20
46309;DHT22;32037;50.820;6.494;2022-09-09T08:48:40;22.70;47.20
46309;DHT22;32037;50.820;6.494;2022-09-09T08:51:12;22.70;47.30
46309;DHT22;32037;50.820;6.494;2022-09-09T08:53:46;22.70;47.20
46309;DHT22;32037;50.820;6.494;2022-09-09T08:56:18;22.70;47.10
46309;DHT22;32037;50.820;6.494;2022-09-09T08:58:53;22.70;47.20
46309;DHT22;32037;50.820;6.494;2022-09-09T09:01:42;22.70;47.20
46309;DHT22;32037;50.820;6.494;2022-09-09T09:04:29;22.70;47.20
46309;DHT22;32037;50.820;6.494;2022-09-09T09:07:07;22.70;47.10
46309;DHT22;32037;50.820;6.494;2022-09-09T09:09:45;22.70;47.20
46309;DHT22;32037;50.820;6.494;2022-09-09T09:12:16;22.70;47.20
46309;DHT22;32037;50.820;6.494;2022-09-09T09:14:48;22.60;47.10
46309;DHT22;32037;50.820;6.494;2022-09-09T09:17:19;22.70;47.10
46309;DHT22;32037;50.820;6.494;2022-09-09T09:19:49;22.70;47.20
46309;DHT22;32037;50.820;6.494;2022-09-09T09:22:20;22.70;47.20
46309;DHT22;32037;50.820;6.494;2022-09-09T09:24:58;22.70;47.10
46309;DHT22;32037;50.820;6.494;2022-09-09T09:27:33;22.60;47.00
46309;DHT22;32037;50.820;6.494;2022-09-09T09:30:14;22.70;47.10
46309;DHT22;32037;50.820;6.494;2022-09-09T09:33:02;22.70;47.10
46309;DHT22;32037;50.820;6.494;2022-09-09T09:35:31;22.60;48.30
46309;DHT22;32037;50.820;6.494;2022-09-09T09:38:16;22.60;47.00
46309;DHT22;32037;50.820;6.494;2022-09-09T09:41:06;22.60;47.10
46309;DHT22;32037;50.820;6.494;2022-09-09T09:43:37;22.60;47.10
46309;DHT22;32037;50.820;6.494;2022-09-09T09:46:20;22.70;47.20
46309;DHT22;32037;50.820;6.494;2022-09-09T09:48:57;22.70;47.20
46309;DHT22;32037;50.820;6.494;2022-09-09T09:51:28;22.60;47.10
46309;DHT22;32037;50.820;6.494;2022-09-09T09:54:08;22.70;47.20
46309;DHT22;32037;50.820;6.494;2022-09-09T09:56:40;22.60;47.00
46309;DHT22;32037;50.820;6.494;2022-09-09T09:59:21;22.60;47.00
46309;DHT22;32037;50.820;6.494;2022-09-09T10:02:19;22.70;47.10
46309;DHT22;32037;50.820;6.494;2022-09-09T10:05:02;22.70;47.10
46309;DHT22;32037;50.820;6.494;2022-09-09T10:07:33;22.60;47.00
46309;DHT22;32037;50.820;6.494;2022-09-09T10:10:05;22.70;47.10
46309;DHT22;32037;50.820;6.494;2022-09-09T10:12:46;22.60;47.10
46309;DHT22;32037;50.820;6.494;2022-09-09T10:15:29;22.60;47.00
46309;DHT22;32037;50.820;6.494;2022-09-09T10:18:08;22.60;47.10
46309;DHT22;32037;50.820;6.494;2022-09-09T10:20:45;22.70;47.20
46309;DHT22;32037;50.820;6.494;2022-09-09T10:23:30;22.70;47.10
46309;DHT22;32037;50.820;6.494;2022-09-09T10:26:14;22.70;47.20
46309;DHT22;32037;50.820;6.494;2022-09-09T10:29:08;22.60;47.10
46309;DHT22;32037;50.820;6.494;2022-09-09T10:31:45;22.60;47.00
46309;DHT22;32037;50.820;6.494;2022-09-09T10:34:30;22.60;47.20
46309;DHT22;32037;50.820;6.494;2022-09-09T10:37:03;22.60;47.00
46309;DHT22;32037;50.820;6.494;2022-09-09T10:39:37;22.60;47.10
46309;DHT22;32037;50.820;6.494;2022-09-09T10:42:11;22.60;47.00
46309;DHT22;32037;50.820;6.494;2022-09-09T10:45:02;22.60;47.00
46309;DHT22;32037;50.820;6.494;2022-09-09T10:47:55;22.60;47.00
46309;DHT22;32037;50.820;6.494;2022-09-09T10:50:43;22.60;47.00
46309;DHT22;32037;50.820;6.494;2022-09-09T10:53:36;22.60;47.10
46309;DHT22;32037;50.820;6.494;2022-09-09T10:56:08;22.60;47.20
46309;DHT22;32037;50.820;6.494;2022-09-09T10:58:41;22.60;47.20
46309;DHT22;32037;50.820;6.494;2022-09-09T11:01:17;22.60;47.20
46309;DHT22;32037;50.820;6.494;2022-09-09T11:03:52;22.60;47.10
46309;DHT22;32037;50.820;6.494;2022-09-09T11:06:28;22.60;47.20
46309;DHT22;32037;50.820;6.494;2022-09-09T11:09:01;22.60;47.10
46309;DHT22;32037;50.820;6.494;2022-09-09T11:11:34;22.60;47.00
46309;DHT22;32037;50.820;6.494;2022-09-09T11:14:10;22.60;47.00
46309;DHT22;32037;50.820;6.494;2022-09-09T11:16:48;22.60;47.00
46309;DHT22;32037;50.820;6.494;2022-09-09T11:19:24;22.60;47.00
46309;DHT22;32037;50.820;6.494;2022-09-09T11:21:55;22.60;46.90
46309;DHT22;32037;50.820;6.494;2022-09-09T11:24:29;22.60;46.90
46309;DHT22;32037;50.820;6.494;2022-09-09T11:27:03;22.60;47.00
46309;DHT22;32037;50.820;6.494;2022-09-09T11:30:05;22.60;47.00
46309;DHT22;32037;50.820;6.494;2022-09-09T11:33:01;22.60;47.00
46309;DHT22;32037;50.820;6.494;2022-09-09T11:35:38;22.60;47.00
46309;DHT22;32037;50.820;6.494;2022-09-09T11:38:16;22.60;46.80
46309;DHT22;32037;50.820;6.494;2022-09-09T11:40:46;22.60;46.80
46309;DHT22;32037;50.820;6.494;2022-09-09T11:43:18;22.60;46.80
46309;DHT22;32037;50.820;6.494;2022-09-09T11:45:51;22.60;46.70
46309;DHT22;32037;50.820;6.494;2022-09-09T11:48:35;22.60;46.80
46309;DHT22;32037;50.820;6.494;2022-09-09T11:51:07;22.60;46.60
46309;DHT22;32037;50.820;6.494;2022-09-09T11:53:51;22.60;46.40
46309;DHT22;32037;50.820;6.494;2022-09-09T11:56:28;22.50;46.20
46309;DHT22;32037;50.820;6.494;2022-09-09T11:59:00;22.50;46.50
46309;DHT22;32037;50.820;6.494;2022-09-09T12:01:36;22.50;46.40
46309;DHT22;32037;50.820;6.494;2022-09-09T12:04:28;22.50;46.40
46309;DHT22;32037;50.820;6.494;2022-09-09T12:07:03;22.50;46.40
46309;DHT22;32037;50.820;6.494;2022-09-09T12:09:46;22.50;46.40
46309;DHT22;32037;50.820;6.494;2022-09-09T12:12:25;22.50;46.90
46309;DHT22;32037;50.820;6.494;2022-09-09T12:17:44;22.50;47.20
46309;DHT22;32037;50.820;6.494;2022-09-09T12:20:17;22.50;47.50
46309;DHT22;32037;50.820;6.494;2022-09-09T12:23:10;22.50;47.60
46309;DHT22;32037;50.820;6.494;2022-09-09T12:25:59;22.50;47.70
46309;DHT22;32037;50.820;6.494;2022-09-09T12:28:52;22.50;47.60
46309;DHT22;32037;50.820;6.494;2022-09-09T12:31:25;22.50;47.60
46309;DHT22;32037;50.820;6.494;2022-09-09T12:33:55;22.50;48.60
46309;DHT22;32037;50.820;6.494;2022-09-09T12:36:28;22.50;47.50
46309;DHT22;32037;50.820;6.494;2022-09-09T12:38:59;22.50;47.50
46309;DHT22;32037;50.820;6.494;2022-09-09T12:41:37;22.50;47.50
46309;DHT22;32037;50.820;6.494;2022-09-09T12:44:06;22.50;47.60
46309;DHT22;32037;50.820;6.494;2022-09-09T12:46:39;22.50;47.60
46309;DHT22;32037;50.820;6.494;2022-09-09T12:49:26;22.50;47.60
46309;DHT22;32037;50.820;6.494;2022-09-09T12:51:56;22.50;47.50
46309;DHT22;32037;50.820;6.494;2022-09-09T12:54:25;22.50;47.60
46309;DHT22;32037;50.820;6.494;2022-09-09T12:56:55;22.50;47.60
46309;DHT22;32037;50.820;6.494;2022-09-09T12:59:35;22.50;47.60
46309;DHT22;32037;50.820;6.494;2022-09-09T13:02:16;22.50;47.70
46309;DHT22;32037;50.820;6.494;2022-09-09T13:04:47;22.50;47.60
46309;DHT22;32037;50.820;6.494;2022-09-09T13:07:19;22.50;47.80
46309;DHT22;32037;50.820;6.494;2022-09-09T13:09:49;22.50;47.70
46309;DHT22;32037;50.820;6.494;2022-09-09T13:12:20;22.50;47.70
46309;DHT22;32037;50.820;6.494;2022-09-09T13:14:51;22.50;47.70
46309;DHT22;32037;50.820;6.494;2022-09-09T13:17:24;22.50;47.60
46309;DHT22;32037;50.820;6.494;2022-09-09T13:19:56;22.60;47.70
46309;DHT22;32037;50.820;6.494;2022-09-09T13:22:30;22.50;47.60
46309;DHT22;32037;50.820;6.494;2022-09-09T13:25:02;22.50;47.60
46309;DHT22;32037;50.820;6.494;2022-09-09T13:27:32;22.60;47.80
46309;DHT22;32037;50.820;6.494;2022-09-09T13:30:18;22.60;47.80
46309;DHT22;32037;50.820;6.494;2022-09-09T13:33:03;22.50;47.50
46309;DHT22;32037;50.820;6.494;2022-09-09T13:35:34;22.50;47.50
46309;DHT22;32037;50.820;6.494;2022-09-09T13:38:12;22.50;47.50
46309;DHT22;32037;50.820;6.494;2022-09-09T13:40:52;22.50;47.60
46309;DHT22;32037;50.820;6.494;2022-09-09T13:43:22;22.50;47.90
46309;DHT22;32037;50.820;6.494;2022-09-09T13:45:56;22.50;48.00
46309;DHT22;32037;50.820;6.494;2022-09-09T13:48:25;22.50;48.20
46309;DHT22;32037;50.820;6.494;2022-09-09T13:50:55;22.50;48.30
46309;DHT22;32037;50.820;6.494;2022-09-09T13:53:26;22.50;48.50
46309;DHT22;32037;50.820;6.494;2022-09-09T13:55:54;22.50;48.60
46309;DHT22;32037;50.820;6.494;2022-09-09T14:00:11;22.50;48.80
46309;DHT22;32037;50.820;6.494;2022-09-09T14:02:25;22.50;49.00
46309;DHT22;32037;50.820;6.494;2022-09-09T14:24:48;22.60;49.50
46309;DHT22;32037;50.820;6.494;2022-09-09T14:27:17;22.60;49.60
46309;DHT22;32037;50.820;6.494;2022-09-09T14:29:47;22.60;49.60
46309;DHT22;32037;50.820;6.494;2022-09-09T14:32:15;22.60;49.90
46309;DHT22;32037;50.820;6.494;2022-09-09T14:34:44;22.60;49.90
46309;DHT22;32037;50.820;6.494;2022-09-09T14:37:13;22.60;50.10
46309;DHT22;32037;50.820;6.494;2022-09-09T14:39:41;22.60;50.00
46309;DHT22;32037;50.820;6.494;2022-09-09T14:42:13;22.60;50.00
46309;DHT22;32037;50.820;6.494;2022-09-09T14:44:41;22.50;49.90
46309;DHT22;32037;50.820;6.494;2022-09-09T14:47:10;22.60;50.00
46309;DHT22;32037;50.820;6.494;2022-09-09T14:49:39;22.60;50.00
46309;DHT22;32037;50.820;6.494;2022-09-09T14:52:13;22.60;50.00
46309;DHT22;32037;50.820;6.494;2022-09-09T14:54:41;22.60;50.30
46309;DHT22;32037;50.820;6.494;2022-09-09T14:57:15;22.60;50.50
46309;DHT22;32037;50.820;6.494;2022-09-09T14:59:53;22.60;50.60
46309;DHT22;32037;50.820;6.494;2022-09-09T15:02:35;22.60;50.50
46309;DHT22;32037;50.820;6.494;2022-09-09T15:05:05;22.60;50.50
46309;DHT22;32037;50.820;6.494;2022-09-09T15:07:34;22.60;50.40
46309;DHT22;32037;50.820;6.494;2022-09-09T15:10:04;22.60;50.50
46309;DHT22;32037;50.820;6.494;2022-09-09T15:12:50;22.60;50.50
46309;DHT22;32037;50.820;6.494;2022-09-09T15:15:24;22.60;50.30
46309;DHT22;32037;50.820;6.494;2022-09-09T15:17:54;22.60;50.20
46309;DHT22;32037;50.820;6.494;2022-09-09T15:20:24;22.60;50.70
46309;DHT22;32037;50.820;6.494;2022-09-09T15:23:07;22.60;50.90
46309;DHT22;32037;50.820;6.494;2022-09-09T15:25:54;22.60;52.70
46309;DHT22;32037;50.820;6.494;2022-09-09T15:28:29;22.60;51.40
46309;DHT22;32037;50.820;6.494;2022-09-09T15:31:06;22.60;51.40
46309;DHT22;32037;50.820;6.494;2022-09-09T15:33:35;22.60;51.80
46309;DHT22;32037;50.820;6.494;2022-09-09T15:36:16;22.60;51.80
46309;DHT22;32037;50.820;6.494;2022-09-09T15:38:45;22.60;52.40
46309;DHT22;32037;50.820;6.494;2022-09-09T15:41:15;22.60;52.20
46309;DHT22;32037;50.820;6.494;2022-09-09T15:43:46;22.60;52.60
46309;DHT22;32037;50.820;6.494;2022-09-09T15:46:27;22.60;52.60
46309;DHT22;32037;50.820;6.494;2022-09-09T15:48:57;22.70;52.40
46309;DHT22;32037;50.820;6.494;2022-09-09T15:51:35;22.70;52.40
46309;DHT22;32037;50.820;6.494;2022-09-09T15:54:17;22.70;52.70
46309;DHT22;32037;50.820;6.494;2022-09-09T15:56:51;22.70;52.90
46309;DHT22;32037;50.820;6.494;2022-09-09T15:59:25;22.70;53.50
46309;DHT22;32037;50.820;6.494;2022-09-09T16:01:55;22.70;53.30
46309;DHT22;32037;50.820;6.494;2022-09-09T16:04:25;22.70;53.50
46309;DHT22;32037;50.820;6.494;2022-09-09T16:06:55;22.70;53.60
46309;DHT22;32037;50.820;6.494;2022-09-09T16:09:25;22.70;53.50
46309;DHT22;32037;50.820;6.494;2022-09-09T16:11:56;22.70;53.60
46309;DHT22;32037;50.820;6.494;2022-09-09T16:14:28;22.70;53.70
46309;DHT22;32037;50.820;6.494;2022-09-09T16:17:01;22.70;53.40
46309;DHT22;32037;50.820;6.494;2022-09-09T16:19:30;22.70;53.70
46309;DHT22;32037;50.820;6.494;2022-09-09T16:21:59;22.70;53.50
46309;DHT22;32037;50.820;6.494;2022-09-09T16:24:28;22.70;53.30
46309;DHT22;32037;50.820;6.494;2022-09-09T16:26:56;22.70;53.40
46309;DHT22;32037;50.820;6.494;2022-09-09T16:29:26;22.70;53.70
46309;DHT22;32037;50.820;6.494;2022-09-09T16:31:55;22.70;54.00
46309;DHT22;32037;50.820;6.494;2022-09-09T16:34:29;22.70;54.40
46309;DHT22;32037;50.820;6.494;2022-09-09T16:36:58;22.70;53.80